createdAt,value
2023-05-04T00:00:23.272Z,7.68
2023-05-04T00:03:29.152Z,8.55
2023-05-04T00:06:34.541Z,7.47
2023-05-04T00:09:40.309Z,12.68
2023-05-04T00:12:46.650Z,8.57
2023-05-04T00:15:51.960Z,7.53
2023-05-04T00:18:57.216Z,11.50
2023-05-04T00:22:03.166Z,7.03
2023-05-04T00:25:08.922Z,7.18
2023-05-04T00:28:14.798Z,11.05
2023-05-04T00:31:20.468Z,9.32
2023-05-04T00:34:26.058Z,7.53
2023-05-04T00:37:32.214Z,7.97
2023-05-04T00:40:37.790Z,6.85
2023-05-04T00:43:43.085Z,11.93
2023-05-04T00:46:48.756Z,6.40
2023-05-04T00:49:54.602Z,9.07
2023-05-04T00:53:06.031Z,13.13
2023-05-04T00:56:13.009Z,8.63
2023-05-04T00:59:18.709Z,12.35
2023-05-04T01:02:24.306Z,11.80
2023-05-04T01:05:36.701Z,7.78
2023-05-04T01:08:54.298Z,12.15
2023-05-04T01:12:11.907Z,11.88
2023-05-04T01:15:18.502Z,11.32
2023-05-04T01:18:24.109Z,8.68
2023-05-04T01:21:30.852Z,8.38
2023-05-04T01:24:36.487Z,9.48
2023-05-04T01:27:55.975Z,6.93
2023-05-04T01:31:06.271Z,9.23
2023-05-04T01:34:12.833Z,8.88
2023-05-04T01:37:18.574Z,13.45
2023-05-04T01:40:24.351Z,8.52
2023-05-04T01:43:30.125Z,10.40
2023-05-04T01:46:36.087Z,8.25
2023-05-04T01:49:41.858Z,7.95
2023-05-04T01:52:47.848Z,16.23
2023-05-04T01:55:53.787Z,9.63
2023-05-04T01:58:58.844Z,9.73
2023-05-04T02:02:04.358Z,14.70
2023-05-04T02:05:10.044Z,9.57
2023-05-04T02:08:15.567Z,8.57
2023-05-04T02:11:22.014Z,10.80
2023-05-04T02:14:27.643Z,8.23
2023-05-04T02:17:33.983Z,10.52
2023-05-04T02:20:39.221Z,10.77
2023-05-04T02:23:44.824Z,11.13
2023-05-04T02:26:50.450Z,8.60
2023-05-04T02:29:58.657Z,9.95
2023-05-04T02:33:04.951Z,11.02
2023-05-04T02:36:10.297Z,19.70
2023-05-04T02:39:15.966Z,6.85
2023-05-04T02:42:21.691Z,10.23
2023-05-04T02:45:27.478Z,8.07
2023-05-04T02:48:33.536Z,7.03
2023-05-04T02:51:39.443Z,9.20
2023-05-04T02:54:45.136Z,6.30
2023-05-04T02:57:50.720Z,9.10
2023-05-04T03:00:56.533Z,7.72
2023-05-04T03:04:01.698Z,6.70
2023-05-04T03:07:09.574Z,5.63
2023-05-04T03:10:15.260Z,4.40
2023-05-04T03:13:20.930Z,3.80
2023-05-04T03:16:26.464Z,6.05
2023-05-04T03:19:31.681Z,9.48
2023-05-04T03:22:37.346Z,7.35
2023-05-04T03:25:43.747Z,6.30
2023-05-04T03:28:49.164Z,10.93
2023-05-04T03:31:54.738Z,8.50
2023-05-04T03:35:02.006Z,10.60
2023-05-04T04:39:26.455Z,12.50
2023-05-04T04:42:32.568Z,11.68
2023-05-04T04:45:38.446Z,18.65
2023-05-04T04:48:43.594Z,14.80
2023-05-04T04:51:49.329Z,13.50
2023-05-04T04:54:54.960Z,7.55
2023-05-04T04:58:00.653Z,11.20
2023-05-04T05:01:08.403Z,9.60
2023-05-04T05:04:14.618Z,10.15
2023-05-04T05:07:20.242Z,22.38
2023-05-04T05:10:26.080Z,11.82
2023-05-04T05:13:31.957Z,11.52
2023-05-04T05:16:37.631Z,11.73
2023-05-04T05:19:44.122Z,10.57
2023-05-04T05:22:50.156Z,8.70
2023-05-04T05:25:57.034Z,13.48
2023-05-04T05:29:03.185Z,13.00
2023-05-04T05:32:09.050Z,10.20
2023-05-04T05:35:14.945Z,10.60
2023-05-04T05:38:20.688Z,7.85
2023-05-04T05:41:26.375Z,5.00
2023-05-04T05:44:31.786Z,7.13
2023-05-04T05:47:37.744Z,10.57
2023-05-04T05:50:43.562Z,7.93
2023-05-04T05:53:49.697Z,6.20
2023-05-04T05:56:55.486Z,6.15
2023-05-04T06:00:01.292Z,6.53
2023-05-04T06:03:18.002Z,3.70
2023-05-04T06:06:23.737Z,11.70
2023-05-04T06:09:29.289Z,7.00
2023-05-04T06:12:34.965Z,4.63
2023-05-04T06:15:40.645Z,5.72
2023-05-04T06:18:46.595Z,4.30
2023-05-04T06:21:52.653Z,6.00
2023-05-04T06:25:02.833Z,5.72
2023-05-04T06:28:09.430Z,5.53
2023-05-04T06:31:15.292Z,4.93
2023-05-04T06:34:21.714Z,3.53
2023-05-04T06:37:27.450Z,3.83
2023-05-04T06:40:33.525Z,7.03
2023-05-04T06:43:42.364Z,5.00
2023-05-04T06:46:48.042Z,4.65
2023-05-04T06:49:53.611Z,6.70
2023-05-04T06:53:17.632Z,6.93
2023-05-04T06:56:24.109Z,5.40
2023-05-04T06:59:29.726Z,4.47
2023-05-04T07:02:36.154Z,7.10
2023-05-04T07:05:42.909Z,4.95
2023-05-04T07:08:48.970Z,5.45
2023-05-04T07:11:54.999Z,7.40
2023-05-04T07:15:00.742Z,3.85
2023-05-04T07:18:06.570Z,7.50
2023-05-04T07:21:26.993Z,7.07
2023-05-04T07:24:33.921Z,5.22
2023-05-04T07:27:40.136Z,6.00
2023-05-04T07:30:45.452Z,7.13
2023-05-04T07:33:51.448Z,6.47
2023-05-04T07:36:56.861Z,7.18
2023-05-04T07:40:06.381Z,7.45
2023-05-04T07:43:12.146Z,7.97
2023-05-04T07:46:17.733Z,6.35
2023-05-04T07:49:23.359Z,6.68
2023-05-04T07:52:29.189Z,5.07
2023-05-04T07:55:35.287Z,5.63
2023-05-04T07:58:41.777Z,6.55
2023-05-04T08:01:47.531Z,10.20
2023-05-04T08:04:53.320Z,5.47
2023-05-04T08:07:58.843Z,5.80
2023-05-04T08:11:16.296Z,4.75
2023-05-04T08:14:24.816Z,5.13
2023-05-04T08:17:30.533Z,7.93
2023-05-04T08:20:35.863Z,5.32
2023-05-04T08:23:42.532Z,7.22
2023-05-04T08:26:55.956Z,6.43
2023-05-04T08:30:15.721Z,5.55
2023-05-04T08:38:50.991Z,6.93
2023-05-04T08:41:57.206Z,6.63
2023-05-04T08:45:02.689Z,5.80
2023-05-04T08:48:08.888Z,5.10
2023-05-04T08:51:14.971Z,6.13
2023-05-04T08:54:21.757Z,7.80
2023-05-04T08:57:30.079Z,8.82
2023-05-04T09:00:37.988Z,5.55
2023-05-04T09:03:46.333Z,5.05
2023-05-04T09:06:54.488Z,9.40
2023-05-04T09:10:00.520Z,7.47
2023-05-04T09:13:06.009Z,6.47
2023-05-04T09:16:12.241Z,6.90
2023-05-04T09:19:21.349Z,6.28
2023-05-04T09:22:28.871Z,8.05
2023-05-04T09:25:47.637Z,7.65
2023-05-04T09:28:53.372Z,6.43
2023-05-04T09:31:59.422Z,8.88
2023-05-04T09:35:06.183Z,6.00
2023-05-04T09:38:12.162Z,7.60
2023-05-04T09:41:17.763Z,8.65
2023-05-04T09:44:29.645Z,10.57
2023-05-04T09:47:39.772Z,7.32
2023-05-04T09:51:09.667Z,5.57
2023-05-04T09:54:16.876Z,5.20
2023-05-04T09:57:23.810Z,5.10
2023-05-04T10:00:29.238Z,5.70
2023-05-04T10:03:35.236Z,7.18
2023-05-04T10:06:43.529Z,7.93
2023-05-04T10:09:50.620Z,6.45
2023-05-04T10:12:56.256Z,6.07
2023-05-04T10:16:25.213Z,5.63
2023-05-04T10:20:08.185Z,6.65
2023-05-04T10:23:51.064Z,6.95
2023-05-04T10:27:03.744Z,7.70
2023-05-04T10:30:13.569Z,7.85
2023-05-04T10:33:18.924Z,5.82
2023-05-04T10:36:24.672Z,6.47
2023-05-04T10:39:32.690Z,7.10
2023-05-04T10:42:44.813Z,4.78
2023-05-04T10:45:50.944Z,6.72
2023-05-04T10:48:56.559Z,6.82
2023-05-04T10:52:13.732Z,5.50
2023-05-04T10:55:22.300Z,6.30
2023-05-04T10:58:29.504Z,15.85
2023-05-04T11:01:46.883Z,5.70
2023-05-04T11:05:06.357Z,6.53
2023-05-04T11:08:19.727Z,9.63
2023-05-04T11:11:25.461Z,6.55
2023-05-04T11:14:31.611Z,17.10
2023-05-04T11:17:51.300Z,6.00
2023-05-04T11:20:57.712Z,5.93
2023-05-04T11:24:03.474Z,7.90
2023-05-04T11:27:09.462Z,7.10
2023-05-04T11:30:15.427Z,5.45
2023-05-04T11:33:21.243Z,6.32
2023-05-04T11:36:27.486Z,5.35
2023-05-04T11:39:33.925Z,5.65
2023-05-04T11:42:40.883Z,5.03
2023-05-04T11:45:49.048Z,4.95
2023-05-04T11:48:55.530Z,9.32
2023-05-04T11:52:10.824Z,7.60
2023-05-04T11:55:29.799Z,8.38
2023-05-04T11:58:36.450Z,9.43
2023-05-04T12:01:42.443Z,5.47
2023-05-04T12:04:48.482Z,9.05
2023-05-04T12:07:54.508Z,6.18
2023-05-04T12:11:17.034Z,8.18
2023-05-04T12:14:24.761Z,8.38
2023-05-04T12:17:41.746Z,7.15
2023-05-04T12:20:48.715Z,7.53
2023-05-04T12:23:57.234Z,6.93
2023-05-04T12:27:03.109Z,5.93
2023-05-04T12:30:09.257Z,7.00
2023-05-04T12:33:14.464Z,5.07
2023-05-04T12:36:20.226Z,6.65
2023-05-04T12:39:26.144Z,7.88
2023-05-04T12:42:32.219Z,7.43
2023-05-04T12:45:38.473Z,6.07
2023-05-04T12:48:44.653Z,6.72
2023-05-04T12:51:51.493Z,5.53
2023-05-04T12:54:56.743Z,6.10
2023-05-04T12:58:03.663Z,5.47
2023-05-04T13:01:09.357Z,3.60
2023-05-04T13:04:15.213Z,4.25
2023-05-04T13:07:20.778Z,2.42
2023-05-04T13:10:27.308Z,2.95
2023-05-04T13:13:32.521Z,3.53
2023-05-04T13:16:37.948Z,2.85
2023-05-04T13:19:43.486Z,4.82
2023-05-04T13:22:48.930Z,3.85
2023-05-04T13:25:55.052Z,4.05
2023-05-04T13:29:00.718Z,4.47
2023-05-04T13:32:07.312Z,3.35
2023-05-04T13:35:13.219Z,4.88
2023-05-04T13:38:18.995Z,5.20
2023-05-04T13:41:24.782Z,5.20
2023-05-04T13:44:30.281Z,8.45
2023-05-04T13:47:37.410Z,6.70
2023-05-04T13:50:43.228Z,4.88
2023-05-04T13:53:48.873Z,5.05
2023-05-04T13:56:54.557Z,5.40
2023-05-04T14:00:07.556Z,5.18
2023-05-04T14:03:17.185Z,5.57
2023-05-04T14:06:22.230Z,4.68
2023-05-04T14:09:27.572Z,7.00
2023-05-04T14:12:33.217Z,6.78
2023-05-04T14:15:38.711Z,7.28
2023-05-04T14:18:44.119Z,5.28
2023-05-04T14:21:49.435Z,9.07
2023-05-04T14:24:55.307Z,4.43
2023-05-04T14:28:01.075Z,5.50
2023-05-04T14:31:09.781Z,5.65
2023-05-04T14:34:15.682Z,7.90
2023-05-04T14:37:21.473Z,5.47
2023-05-04T14:40:26.787Z,10.75
2023-05-04T14:43:32.583Z,6.15
2023-05-04T14:46:38.146Z,7.10
2023-05-04T14:49:43.709Z,7.25
2023-05-04T14:52:49.004Z,4.72
2023-05-04T14:55:54.717Z,7.70
2023-05-04T14:59:01.741Z,7.55
2023-05-04T15:02:08.453Z,7.70
2023-05-04T15:05:14.044Z,6.70
2023-05-04T15:08:19.690Z,7.78
2023-05-04T15:11:25.156Z,7.50
2023-05-04T15:14:30.382Z,4.28
2023-05-04T15:17:36.000Z,8.25
2023-05-04T15:20:41.738Z,5.53
2023-05-04T15:23:47.453Z,9.38
2023-05-04T15:26:53.064Z,11.50
2023-05-04T15:29:58.820Z,4.20
2023-05-04T15:33:07.408Z,4.97
2023-05-04T15:36:13.351Z,4.47
2023-05-04T15:39:19.140Z,6.55
2023-05-04T15:42:24.722Z,4.30
2023-05-04T15:45:30.235Z,4.07
2023-05-04T15:48:35.606Z,5.93
2023-05-04T15:51:42.393Z,3.80
2023-05-04T15:54:48.383Z,5.57
2023-05-04T15:57:54.419Z,3.75
2023-05-04T16:01:04.224Z,4.28
2023-05-04T16:04:09.796Z,3.50
2023-05-04T16:07:15.603Z,3.95
2023-05-04T16:10:22.586Z,2.83
2023-05-04T16:13:28.182Z,5.28
2023-05-04T16:16:33.721Z,3.65
2023-05-04T16:19:39.745Z,12.15
2023-05-04T16:22:45.509Z,6.63
2023-05-04T16:25:51.036Z,6.50
2023-05-04T16:28:57.024Z,4.85
2023-05-04T16:32:03.326Z,4.32
2023-05-04T16:35:08.998Z,4.32
2023-05-04T16:38:14.377Z,6.15
2023-05-04T16:41:20.130Z,3.95
2023-05-04T16:44:26.106Z,4.05
2023-05-04T16:47:31.759Z,5.70
2023-05-04T16:50:37.210Z,6.25
2023-05-04T16:53:42.356Z,6.25
2023-05-04T16:56:48.044Z,8.63
2023-05-04T16:59:54.044Z,3.05
2023-05-04T17:02:59.412Z,3.40
2023-05-04T17:06:05.121Z,3.70
2023-05-04T17:09:10.885Z,3.70
2023-05-04T17:12:16.831Z,4.28
2023-05-04T17:15:22.302Z,2.85
2023-05-04T17:18:29.160Z,3.35
2023-05-04T17:21:34.580Z,8.95
2023-05-04T17:24:40.247Z,3.92
2023-05-04T17:27:46.016Z,3.33
2023-05-04T17:30:51.779Z,3.25
2023-05-04T17:33:57.749Z,3.17
2023-05-04T17:37:04.054Z,3.30
2023-05-04T17:40:09.986Z,5.28
2023-05-04T17:43:15.702Z,5.57
2023-05-04T17:46:21.888Z,3.92
2023-05-04T17:49:27.059Z,4.15
2023-05-04T17:52:32.708Z,4.10
2023-05-04T17:55:38.268Z,3.30
2023-05-04T17:58:43.657Z,4.45
2023-05-04T18:01:49.237Z,4.20
2023-05-04T18:04:55.121Z,4.68
2023-05-04T18:08:00.613Z,3.63
2023-05-04T18:11:06.147Z,5.60
2023-05-04T18:14:11.608Z,5.85
2023-05-04T18:17:17.488Z,8.57
2023-05-04T18:20:23.272Z,5.65
2023-05-04T18:23:29.471Z,3.42
2023-05-04T18:26:35.004Z,7.18
2023-05-04T18:29:40.832Z,4.88
2023-05-04T18:32:46.907Z,5.05
2023-05-04T18:35:52.954Z,6.15
2023-05-04T18:39:00.800Z,8.68
2023-05-04T18:42:06.300Z,7.05
2023-05-04T18:45:12.221Z,5.07
2023-05-04T18:48:17.626Z,10.93
2023-05-04T18:51:23.223Z,6.20
2023-05-04T18:54:34.887Z,6.47
2023-05-04T18:57:40.507Z,6.15
2023-05-04T19:00:46.671Z,11.32
2023-05-04T19:03:52.312Z,8.63
2023-05-04T19:06:58.471Z,7.80
2023-05-04T19:10:05.309Z,7.63
2023-05-04T19:13:11.496Z,6.57
2023-05-04T19:16:17.768Z,11.10
2023-05-04T19:19:23.528Z,6.43
2023-05-04T19:22:28.770Z,10.45
2023-05-04T19:25:35.413Z,9.90
2023-05-04T19:28:42.190Z,13.48
2023-05-04T19:31:47.750Z,12.57
2023-05-04T19:34:53.241Z,8.57
2023-05-04T19:37:58.561Z,15.65
2023-05-04T19:41:04.858Z,8.95
2023-05-04T19:44:10.500Z,11.05
2023-05-04T19:47:16.243Z,9.18
2023-05-04T19:50:21.924Z,12.00
2023-05-04T19:53:27.628Z,7.82
2023-05-04T19:56:33.257Z,10.05
2023-05-04T19:59:39.357Z,9.43
2023-05-04T20:02:46.675Z,8.27
2023-05-04T20:05:52.735Z,12.38
2023-05-04T20:08:58.120Z,9.48
2023-05-04T20:12:04.929Z,11.00
2023-05-04T20:15:11.557Z,13.63
2023-05-04T20:18:17.717Z,10.70
2023-05-04T20:21:23.477Z,8.02
2023-05-04T20:24:29.034Z,15.60
2023-05-04T20:27:34.694Z,9.93
2023-05-04T20:30:40.418Z,7.43
2023-05-04T20:33:45.894Z,8.65
2023-05-04T20:36:51.195Z,8.35
2023-05-04T20:39:57.295Z,8.95
2023-05-04T20:43:03.199Z,8.63
2023-05-04T20:46:09.394Z,9.15
2023-05-04T20:49:15.284Z,8.38
2023-05-04T20:52:20.664Z,8.88
2023-05-04T20:55:26.249Z,8.38
2023-05-04T20:58:32.303Z,10.13
2023-05-04T21:01:37.605Z,8.35
2023-05-04T21:04:47.705Z,8.98
2023-05-04T21:07:53.231Z,8.77
2023-05-04T21:10:59.013Z,14.85
2023-05-04T21:14:04.735Z,11.27
2023-05-04T21:17:10.405Z,14.25
2023-05-04T21:20:16.124Z,9.40
2023-05-04T21:23:22.154Z,10.98
2023-05-04T21:26:27.936Z,12.90
2023-05-04T21:29:33.303Z,14.65
2023-05-04T21:32:38.764Z,12.32
2023-05-04T21:35:44.208Z,14.27
2023-05-04T21:38:49.793Z,16.83
2023-05-04T21:41:56.288Z,15.68
2023-05-04T21:45:01.794Z,16.98
2023-05-04T21:48:07.308Z,16.55
2023-05-04T21:51:13.236Z,21.88
2023-05-04T21:54:19.019Z,20.65
2023-05-04T21:57:26.360Z,19.90
2023-05-04T22:00:32.174Z,21.67
2023-05-04T22:03:38.228Z,17.00
2023-05-04T22:06:44.893Z,20.60
2023-05-04T22:09:50.615Z,26.90
2023-05-04T22:12:56.429Z,19.38
2023-05-04T22:16:02.168Z,19.45
2023-05-04T22:19:08.135Z,17.95
2023-05-04T22:22:14.193Z,22.40
2023-05-04T22:25:20.350Z,17.70
2023-05-04T22:28:26.436Z,18.60
2023-05-04T22:31:32.368Z,23.27
2023-05-04T22:34:37.768Z,20.13
2023-05-04T22:37:43.181Z,17.30
2023-05-04T22:40:50.500Z,16.70
2023-05-04T22:43:56.420Z,15.95
2023-05-04T22:47:02.190Z,20.10
2023-05-04T22:50:11.795Z,17.75
2023-05-04T22:53:17.505Z,19.27
2023-05-04T22:56:23.349Z,23.05
2023-05-04T22:59:29.464Z,20.25
2023-05-04T23:02:36.130Z,18.38
2023-05-04T23:05:42.567Z,19.80
2023-05-04T23:08:48.727Z,19.65
2023-05-04T23:11:54.676Z,21.83
2023-05-04T23:15:00.573Z,19.95
2023-05-04T23:18:06.598Z,20.92
2023-05-04T23:21:12.240Z,21.70
2023-05-04T23:24:18.021Z,18.85
2023-05-04T23:27:23.827Z,18.23
2023-05-04T23:30:29.733Z,17.98
2023-05-04T23:33:35.398Z,19.23
2023-05-04T23:36:41.585Z,19.67
2023-05-04T23:39:47.607Z,19.23
2023-05-04T23:42:53.554Z,21.08
2023-05-04T23:46:03.899Z,17.35
2023-05-04T23:49:10.153Z,18.20
2023-05-04T23:52:16.038Z,23.60
2023-05-04T23:55:22.492Z,20.75
2023-05-04T23:58:28.964Z,19.85
